Date,TemperatureHighF,TemperatureAvgF,TemperatureLowF,DewpointHighF,DewpointAvgF,DewpointLowF,HumidityHigh,HumidityAvg,HumidityLow,PressureMaxIn,PressureMinIn,WindSpeedMaxMPH,WindSpeedAvgMPH,GustSpeedMaxMPH,PrecipitationSumIn
2013-1-1,34,28,16,33,26,14,97,94,88,30.27,30.04,7,1,0,0.04
2013-1-2,34,21,11,24,16,8,94,83,50,30.30,30.20,8,0,0,0.00
2013-1-3,42,26,16,28,21,14,96,82,48,30.44,30.27,8,1,0,0.02
2013-1-4,46,29,14,27,21,12,95,75,40,30.48,30.33,11,1,13,0.00
2013-1-5,42,33,20,33,28,18,96,81,64,30.34,30.16,8,0,0,0.00
2013-1-6,43,30,16,31,23,14,92,76,42,30.37,30.21,12,2,13,0.00
2013-1-7,51,29,13,29,21,11,93,75,38,30.37,30.15,7,0,0,0.00
2013-1-8,56,38,20,46,31,18,97,78,49,30.20,30.06,8,0,0,0.23
2013-1-9,55,48,42,46,42,34,98,81,55,30.35,30.20,9,0,14,0.00
2013-1-10,50,46,42,49,44,35,98,93,64,30.25,29.80,8,1,16,0.65
2013-1-11,67,55,43,48,45,42,96,72,43,29.84,29.69,9,1,15,0.00
2013-1-12,53,40,28,47,35,26,93,81,52,29.96,29.77,16,2,16,0.38
2013-1-13,28,21,12,26,18,9,93,88,78,30.39,29.92,12,2,14,0.00
2013-1-14,31,19,9,18,13,6,93,80,55,30.53,30.38,6,0,0,0.00
2013-1-15,33,21,12,22,15,10,93,79,43,30.39,30.20,6,0,0,0.00
2013-1-16,41,24,10,23,16,8,93,75,42,30.22,30.11,13,1,13,0.01
2013-1-17,47,30,20,33,24,18,94,81,49,30.50,30.20,10,1,13,0.00
2013-1-18,59,37,16,32,22,14,95,62,24,30.52,30.18,18,1,18,0.00
2013-1-19,64,47,29,36,31,26,93,57,34,30.18,30.01,16,2,20,0.00
2013-1-20,56,37,24,34,23,17,94,62,27,30.29,30.14,6,1,0,0.00
2013-1-21,36,25,18,18,14,11,81,63,40,30.39,30.28,10,1,0,0.00
2013-1-22,34,24,15,18,15,11,89,72,50,30.38,30.26,9,0,0,0.00
2013-1-23,59,33,15,42,26,12,93,77,50,30.31,30.15,11,1,13,0.00
2013-1-24,34,31,27,26,15,10,81,53,42,30.39,30.16,12,2,18,0.00
2013-1-25,49,34,26,30,26,18,93,75,44,30.27,30.12,9,1,13,0.00
2013-1-26,58,42,25,31,24,21,92,57,24,30.30,30.14,11,1,14,0.00
2013-1-27,59,50,42,53,43,25,90,77,44,30.14,29.88,11,2,14,0.01
2013-1-28,74,66,56,61,58,53,91,78,59,29.92,29.76,14,2,16,0.00
2013-1-29,68,59,46,61,56,45,97,87,75,29.76,29.39,20,1,21,2.69
2013-1-30,46,32,25,46,28,19,97,84,74,30.04,29.40,23,8,25,0.01
2013-1-31,41,24,12,27,18,4,95,77,53,30.47,30.00,15,2,19,0.00
2013-2-1,34,21,7,19,9,2,86,62,37,30.50,30.21,7,1,0,0.00
2013-2-2,52,35,18,34,26,16,93,72,47,30.25,30.15,14,2,18,0.00
2013-2-3,52,41,32,30,26,19,81,58,30,30.26,29.96,13,2,16,0.00
2013-2-4,60,45,27,42,33,24,94,65,41,29.96,29.80,16,2,18,0.00
2013-2-5,63,39,21,40,28,20,95,73,30,30.08,29.91,15,2,17,0.00
2013-2-6,57,41,23,38,31,21,96,71,42,30.15,29.96,12,1,13,0.00
2013-2-7,56,47,40,51,44,37,96,87,71,30.06,29.84,9,1,0,0.33
2013-2-8,49,37,29,39,31,27,93,79,50,30.30,30.06,8,1,0,0.00
2013-2-9,41,35,31,35,31,28,93,85,67,30.24,29.88,14,3,16,0.07
2013-2-10,60,48,37,52,36,26,97,67,29,29.99,29.63,21,5,26,0.19
2013-2-11,51,36,24,28,25,22,93,67,36,30.17,29.99,12,2,12,0.00
2013-2-12,44,32,20,34,27,18,96,81,54,30.16,29.93,6,0,0,0.03
2013-2-13,49,37,31,37,32,28,96,82,54,29.99,29.90,14,2,16,0.20
2013-2-14,54,44,36,35,30,23,77,57,38,30.13,29.91,11,2,14,0.00
2013-2-15,41,32,17,31,20,12,88,64,34,30.31,30.13,12,2,16,0.00
2013-2-16,37,30,17,24,19,13,91,65,41,30.33,30.14,11,1,12,0.00
2013-2-17,67,45,23,32,25,19,86,49,22,30.14,29.80,11,1,13,0.00
2013-2-18,58,47,30,51,38,23,91,70,57,30.07,29.53,23,3,26,0.13
2013-2-19,42,30,19,23,17,9,88,63,28,30.31,30.07,15,3,20,0.00
2013-2-20,34,28,19,18,12,9,87,53,37,30.34,30.13,8,0,0,0.00
2013-2-21,33,29,26,32,25,13,96,87,48,30.15,29.73,16,2,18,0.00
2013-2-22,33,26,18,31,21,16,93,81,65,30.13,29.83,18,4,21,0.03
2013-2-23,40,26,14,25,18,12,94,77,46,30.12,29.99,10,1,0,0.04
2013-2-24,55,36,17,33,26,15,94,69,42,30.05,29.88,11,2,15,0.10
2013-2-25,44,35,25,34,29,23,93,80,50,29.92,29.43,10,1,15,0.64
2013-2-26,33,32,31,32,30,29,96,92,88,29.85,29.34,16,4,19,0.00
2013-2-27,34,32,30,29,28,26,90,84,76,30.04,29.79,19,6,23,0.00
2013-2-28,33,30,28,28,25,23,87,81,75,30.19,30.03,10,3,12,0.00
2013-3-1,30,28,26,25,23,21,89,83,74,30.26,30.15,12,3,13,0.00
2013-3-2,33,26,16,23,20,14,93,80,60,30.34,30.23,12,2,14,0.01
2013-3-3,57,38,16,30,24,14,94,63,33,30.24,29.82,11,2,13,0.00
2013-3-4,68,48,38,45,36,26,94,62,39,29.82,29.58,15,2,15,0.00
2013-3-5,42,36,29,33,26,19,92,68,49,30.29,29.80,25,6,27,0.04
2013-3-6,45,32,21,25,21,16,86,66,39,30.41,30.27,9,1,0,0.00
2013-3-7,61,43,27,30,26,22,88,55,23,30.30,30.14,10,1,0,0.00
2013-3-8,61,47,35,40,33,30,84,61,38,30.26,30.05,12,2,14,0.01
2013-3-9,71,53,44,48,41,38,87,66,38,30.04,29.74,16,2,16,0.08
2013-3-13,39,30,27,27,25,23,88,80,62,30.40,30.38,0,0,0,0.00
2013-3-14,72,45,23,42,31,21,94,65,29,30.38,30.08,18,2,27,0.00
2013-3-15,81,64,38,47,43,35,91,51,25,30.09,29.71,15,2,20,0.00
2013-3-16,67,58,44,49,43,36,76,57,43,29.86,29.68,13,2,14,0.00
2013-3-17,44,39,37,38,37,35,97,93,76,29.93,29.69,11,1,13,0.31
2013-3-18,53,42,28,42,36,26,98,83,44,30.04,29.69,15,3,16,0.00
2013-3-19,50,36,23,32,24,12,96,67,24,30.26,30.04,6,0,0,0.00
2013-3-20,44,33,23,30,20,11,96,64,28,30.35,30.14,19,3,22,0.00
2013-3-21,39,30,21,29,21,11,95,72,36,30.14,29.88,9,1,12,0.00
2013-3-22,36,33,30,33,31,28,96,93,88,29.97,29.88,7,1,0,0.20
2013-3-23,40,37,34,39,36,33,97,95,88,29.97,29.71,5,0,0,0.02
2013-3-24,40,33,27,39,30,21,97,90,76,30.08,29.57,20,5,26,0.00
2013-3-25,32,27,22,25,21,17,85,79,65,30.33,30.06,23,6,23,0.00
2013-3-26,43,29,20,26,22,18,95,78,49,30.43,30.33,13,2,14,0.00
2013-3-27,57,37,18,32,24,16,95,66,28,30.37,30.17,13,1,13,0.00
2013-3-28,72,55,42,47,39,29,83,56,37,30.24,30.07,10,1,16,0.00
2013-3-29,68,55,43,56,49,40,97,81,52,30.16,30.07,6,0,0,0.10
2013-3-30,71,56,49,56,50,47,96,83,54,30.10,29.81,13,2,16,1.02
2013-3-31,67,54,39,49,44,37,98,74,37,29.95,29.81,14,2,16,0.00
2013-4-1,55,43,34,40,35,28,97,76,54,30.20,29.94,9,1,0,0.01
2013-4-2,40,37,34,34,31,28,89,81,62,30.28,30.18,5,0,0,0.15
2013-4-3,53,42,31,35,27,21,92,60,29,30.30,30.16,9,1,13,0.00
2013-4-4,57,45,31,37,34,28,92,68,38,30.16,30.04,9,1,0,0.02
2013-4-5,71,49,26,42,33,25,96,64,27,30.18,29.97,8,1,0,0.00
2013-4-6,76,59,44,47,42,37,85,57,32,29.97,29.73,16,2,22,0.00
2013-4-7,79,66,52,58,53,46,89,63,40,29.86,29.67,12,2,16,0.00
2013-4-8,74,65,56,60,56,52,88,74,57,29.75,29.66,11,2,15,0.00
2013-4-9,79,67,58,62,58,54,90,74,54,29.76,29.65,14,1,18,0.00
2013-4-10,72,51,38,64,48,36,95,89,72,29.82,29.59,18,4,22,1.04
2013-4-11,48,38,31,36,32,29,95,80,53,29.84,29.73,17,6,19,0.00
2013-4-12,54,40,28,36,31,27,96,74,46,30.04,29.79,17,4,20,0.00
2013-4-13,71,51,30,46,38,29,96,66,36,30.07,29.78,10,1,13,0.00
2013-4-14,82,63,42,52,45,38,95,58,23,29.80,29.48,15,2,19,0.00
2013-4-15,81,64,52,65,55,45,92,74,51,29.82,29.63,10,1,0,0.00
2013-4-16,65,53,48,57,50,47,95,88,73,29.99,29.81,8,1,0,0.00
2013-4-17,86,67,45,69,58,44,97,75,54,29.97,29.58,16,2,16,0.00
2013-4-18,75,50,38,66,46,29,97,84,66,29.92,29.48,26,6,39,1.58
2013-4-19,53,41,33,36,28,24,91,62,35,30.10,29.92,21,7,23,0.00
2013-4-20,68,48,28,43,34,27,97,65,25,30.22,30.09,8,0,0,0.00
2013-4-21,68,55,40,44,39,33,94,60,29,30.27,30.10,14,2,17,0.00
2013-4-22,71,55,37,46,39,33,95,60,25,30.18,29.85,11,1,14,0.00
2013-4-23,60,47,36,52,43,34,95,88,59,30.08,29.81,11,2,12,0.40
2013-4-24,52,40,30,35,32,24,95,74,34,30.32,30.08,13,3,14,0.00
2013-4-25,70,49,26,48,33,25,97,63,23,30.37,30.21,8,1,0,0.00
2013-4-26,57,49,46,46,44,36,96,85,47,30.33,30.13,12,2,16,0.53
2013-4-27,54,50,47,52,48,46,97,95,91,30.15,29.98,9,1,16,0.00
2013-4-28,74,56,45,55,48,43,96,78,37,30.01,29.83,9,2,12,0.00
2013-4-29,86,63,40,63,51,39,98,71,31,29.90,29.71,10,1,14,0.00
2013-4-30,85,68,48,60,50,43,98,60,24,29.83,29.74,10,1,17,0.00
2013-5-1,82,66,47,63,56,46,97,73,46,30.02,29.83,12,1,14,0.00
2013-5-2,58,47,33,57,44,32,98,89,82,30.22,30.00,10,3,12,0.24
2013-5-3,37,34,32,36,32,30,97,94,93,30.21,29.92,9,3,0,0.35
2013-5-4,46,37,32,38,33,30,97,88,68,30.01,29.85,7,0,0,0.00
2013-5-5,58,47,33,50,43,32,98,85,68,30.08,29.99,12,3,14,0.00
2013-5-6,63,54,48,55,50,47,97,89,69,30.05,29.97,10,3,0,0.00
2013-5-7,77,59,40,58,49,40,98,74,40,30.06,29.94,8,1,0,0.00
2013-5-8,78,60,44,60,53,43,98,80,47,30.05,29.87,9,0,0,0.01
2013-5-9,75,63,54,64,58,52,97,85,60,29.95,29.83,11,2,20,0.78
2013-5-10,65,59,47,60,55,46,98,89,72,30.03,29.82,9,1,0,0.01
2013-5-11,72,55,40,56,45,35,98,73,31,30.18,30.02,14,2,15,0.00
2013-5-12,67,48,32,48,36,27,98,69,29,30.27,30.15,11,1,12,0.00
2013-5-13,81,60,40,58,47,39,98,69,32,30.18,30.00,12,1,12,0.00
2013-5-14,89,73,51,56,52,47,97,51,26,30.00,29.87,15,2,17,0.00
2013-5-15,84,69,60,68,59,50,98,72,55,29.92,29.82,8,1,12,0.60
2013-5-16,66,62,59,63,61,58,98,95,87,29.86,29.80,7,0,0,0.00
2013-5-17,81,68,60,66,62,59,98,83,54,29.90,29.82,6,0,0,0.00
2013-5-18,86,70,55,75,66,54,99,87,67,29.91,29.75,9,1,12,0.00
2013-5-19,89,76,65,72,66,61,99,75,40,29.79,29.57,12,1,16,0.04
2013-5-20,77,68,61,70,64,59,97,88,70,29.78,29.63,17,1,19,0.60
2013-5-21,67,62,58,63,59,56,98,93,80,29.84,29.55,14,1,18,0.03
2013-5-22,72,62,51,60,56,50,99,81,56,29.91,29.73,13,2,13,0.00
2013-5-23,75,61,48,61,54,48,99,80,55,30.15,29.90,8,1,0,0.00
2013-5-24,75,62,50,54,50,47,98,70,41,30.28,30.14,11,1,12,0.00
2013-5-25,83,66,51,67,57,47,95,76,52,30.22,30.02,7,0,0,0.15
2013-5-26,86,70,56,70,62,55,99,78,47,30.08,29.92,9,1,0,0.00
2013-5-27,84,74,61,70,66,60,98,78,59,29.93,29.72,10,1,13,0.00
2013-5-28,85,74,65,68,65,62,92,75,54,29.82,29.69,8,1,13,0.00
2013-5-29,83,73,62,68,65,61,98,77,57,29.84,29.69,10,1,14,0.00
2013-5-30,83,70,61,70,64,60,98,84,58,29.79,29.66,11,1,18,2.24
2013-5-31,84,72,63,74,68,62,98,88,69,29.77,29.61,6,0,0,0.02
2013-6-1,76,66,57,67,62,55,98,88,63,29.93,29.62,8,1,0,0.53
2013-6-2,65,58,50,57,55,49,99,88,72,30.02,29.92,5,0,0,0.00
2013-6-3,77,60,44,61,52,44,99,79,45,30.05,29.88,5,0,0,0.00
2013-6-4,74,64,54,67,61,53,98,90,72,29.96,29.88,6,0,0,0.06
2013-6-5,78,65,56,70,62,56,99,91,69,29.98,29.80,11,0,0,0.44
2013-6-6,73,64,54,66,61,53,99,90,71,29.90,29.83,0,0,0,0.00
2013-6-7,76,61,49,61,54,48,99,81,49,29.95,29.86,0,0,0,0.00
2013-6-8,82,64,45,63,56,44,99,78,45,29.93,29.80,4,0,0,0.00
2013-6-9,79,66,58,68,60,57,98,85,51,29.87,29.78,10,1,0,0.14
2013-6-10,89,74,57,75,66,56,98,78,55,29.86,29.78,8,1,12,0.00
2013-6-11,95,77,60,72,66,59,99,74,37,29.93,29.83,8,1,13,0.00
2013-6-12,92,80,66,73,70,65,98,73,49,29.89,29.79,11,1,13,0.00
2013-6-13,87,77,65,71,68,61,96,74,52,29.95,29.84,6,0,0,0.00
2013-6-14,89,74,58,76,67,57,99,81,59,29.99,29.86,7,0,0,0.00
2013-6-15,81,70,65,72,67,64,98,93,67,30.00,29.86,5,0,0,1.36
2013-6-16,88,76,65,77,71,65,99,85,62,29.95,29.83,6,0,0,0.00
2013-6-17,75,68,63,70,66,62,98,94,83,29.94,29.78,7,0,0,0.54
2013-6-18,87,71,56,71,64,56,99,81,48,29.98,29.90,5,0,0,0.00
2013-6-19,88,72,57,74,65,57,99,82,45,30.00,29.91,6,0,0,0.00
2013-6-20,89,74,58,74,67,58,99,81,55,30.03,29.92,7,0,0,0.00
2013-6-21,93,79,64,78,71,64,99,79,54,30.01,29.92,6,0,0,0.00
2013-6-22,91,76,66,77,71,66,99,85,56,30.00,29.87,4,0,0,0.00
2013-6-23,92,78,66,76,70,65,99,80,53,29.94,29.83,6,0,0,0.00
2013-6-24,91,77,65,74,70,64,98,80,53,29.99,29.86,6,0,0,0.00
2013-6-25,90,79,67,74,69,66,98,73,49,29.90,29.75,7,0,0,0.00
2013-6-26,93,83,69,79,74,67,96,75,57,29.84,29.75,10,1,0,0.00
2013-6-27,98,82,69,82,76,68,99,83,51,29.90,29.76,4,0,0,0.00
2013-6-28,91,77,63,75,69,61,97,77,46,29.86,29.75,6,1,0,0.00
2013-6-29,86,70,58,65,59,54,98,72,39,29.81,29.73,7,1,14,0.00
2013-6-30,78,69,59,64,61,58,97,76,58,29.92,29.78,5,0,0,0.00
2013-7-1,82,68,55,63,58,54,98,75,39,29.99,29.91,5,0,0,0.00
2013-7-2,82,65,50,61,55,49,99,75,37,30.04,29.97,6,0,0,0.00
2013-7-3,55,52,50,53,51,49,97,96,95,30.04,30.02,0,0,0,0.00
2013-7-6,85,85,85,66,66,66,52,52,52,29.96,29.96,1,0,0,0.00
2013-7-7,92,80,67,70,66,61,95,68,37,29.99,29.91,5,0,0,0.00
2013-7-8,67,67,66,65,65,65,95,95,95,29.99,29.99,0,0,0,0.00
2013-7-11,94,79,64,69,65,62,94,65,36,29.94,29.87,4,0,0,0.00
2013-7-12,90,72,59,69,62,58,98,73,43,30.02,29.92,6,1,0,0.00
2013-7-13,87,70,53,70,61,52,98,76,44,30.02,29.90,5,0,0,0.00
2013-7-14,87,71,56,65,60,55,98,73,37,30.03,29.94,6,0,0,0.00
2013-7-15,91,74,62,73,66,59,98,81,46,30.13,30.02,6,0,0,0.11
2013-7-16,92,74,63,76,69,63,99,87,46,30.23,30.12,7,0,0,0.07
2013-7-17,93,77,63,76,69,62,99,79,46,30.28,30.12,4,0,0,0.00
2013-7-18,96,79,64,75,68,63,99,75,40,30.16,29.95,5,0,0,0.00
2013-7-19,97,78,65,75,69,64,98,77,38,29.97,29.85,5,0,0,0.00
2013-7-20,96,74,66,74,69,65,98,84,46,29.91,29.77,8,0,12,0.30
2013-7-21,84,74,67,76,71,66,99,91,69,29.89,29.78,6,0,0,0.13
2013-7-22,88,74,64,75,69,63,99,85,51,29.91,29.77,9,1,0,0.01
2013-7-23,94,79,65,80,72,64,99,81,53,29.85,29.72,20,1,20,0.51
2013-7-24,85,75,64,74,69,63,98,84,58,29.97,29.78,4,0,0,0.04
2013-7-25,86,71,58,72,64,58,99,81,48,30.05,29.97,4,0,0,0.00
2013-7-26,71,67,65,70,67,64,99,98,96,30.00,29.94,5,0,0,1.69
2013-7-27,78,69,60,66,62,57,99,82,51,30.02,29.93,5,0,0,0.00
2013-7-28,73,65,58,68,63,57,99,94,79,30.03,29.95,3,0,0,0.06
2013-7-29,73,66,64,70,65,63,99,98,88,30.05,30.00,5,0,0,0.01
2013-8-26,93,83,70,76,73,69,97,74,53,30.16,30.04,3,0,0,0.00
2013-8-27,92,75,61,73,68,60,99,82,46,30.07,29.97,6,0,0,0.00
2013-8-28,91,74,61,76,68,60,99,84,52,30.04,29.96,4,0,0,0.00
2013-8-29,96,77,63,79,71,63,99,84,49,30.02,29.92,4,0,0,0.00
2013-8-30,96,78,66,78,71,65,99,82,47,29.95,29.82,5,0,0,0.00
2013-8-31,96,78,64,78,71,64,99,81,46,29.85,29.74,5,0,0,0.00
2013-9-1,84,73,68,75,70,68,99,92,65,29.86,29.72,5,0,0,0.33
2013-9-2,86,72,60,69,65,59,99,81,48,29.96,29.84,5,0,0,0.00
2013-9-3,87,68,53,68,60,52,99,81,44,30.04,29.94,4,0,0,0.00
2013-9-4,89,68,51,69,60,51,99,80,42,30.12,30.02,4,0,0,0.00
2013-9-5,88,68,52,68,60,51,99,80,42,30.16,30.06,2,0,0,0.00
2013-9-6,88,68,53,70,61,52,99,82,45,30.13,29.98,4,0,0,0.00
2013-9-7,60,60,60,60,59,59,97,97,97,30.00,30.00,0,0,0,0.00
2013-10-21,58,57,54,19,17,14,24,21,19,29.97,29.97,12,7,16,0.00